createdAt,value
2023-01-30T00:01:20.214Z,94675.84
2023-01-30T00:03:47.549Z,94676.28
2023-01-30T00:06:15.193Z,94676.84
2023-01-30T00:08:42.098Z,94666.38
2023-01-30T00:11:11.035Z,94666.94
2023-01-30T00:13:38.253Z,94671.63
2023-01-30T00:16:05.490Z,94668.19
2023-01-30T00:18:32.703Z,94668.44
2023-01-30T00:21:00.976Z,94677.66
2023-01-30T00:23:29.857Z,94676.41
2023-01-30T00:25:56.705Z,94668.88
2023-01-30T00:28:23.649Z,94659.44
2023-01-30T00:30:51.994Z,94659.44
2023-01-30T00:33:20.714Z,94658.63
2023-01-30T00:35:48.988Z,94656.47
2023-01-30T00:38:16.543Z,94646.00
2023-01-30T00:40:43.849Z,94647.47
2023-01-30T00:43:35.855Z,94649.97
2023-01-30T00:46:25.000Z,94646.69
2023-01-30T00:48:53.233Z,94631.97
2023-01-30T00:51:19.907Z,94628.00
2023-01-30T00:53:47.367Z,94624.25
2023-01-30T00:56:14.162Z,94630.84
2023-01-30T00:58:41.369Z,94617.63
2023-01-30T01:01:11.249Z,94627.09
2023-01-30T01:03:37.953Z,94616.25
2023-01-30T01:06:04.933Z,94615.78
2023-01-30T01:08:32.283Z,94611.47
2023-01-30T01:10:58.950Z,94599.31
2023-01-30T01:13:25.804Z,94613.41
2023-01-30T01:15:52.450Z,94621.16
2023-01-30T01:18:19.176Z,94624.13
2023-01-30T01:20:46.360Z,94635.94
2023-01-30T01:23:13.041Z,94629.03
2023-01-30T01:25:39.702Z,94631.41
2023-01-30T01:28:06.603Z,94632.53
2023-01-30T01:30:33.303Z,94630.97
2023-01-30T01:33:00.131Z,94639.94
2023-01-30T01:35:27.967Z,94643.34
2023-01-30T01:37:55.157Z,94656.44
2023-01-30T01:40:41.420Z,94644.75
2023-01-30T01:43:20.401Z,94661.09
2023-01-30T01:45:51.846Z,94653.97
2023-01-30T01:48:41.354Z,94655.66
2023-01-30T01:51:22.538Z,94666.38
2023-01-30T01:53:56.316Z,94675.13
2023-01-30T01:56:23.487Z,94665.91
2023-01-30T01:59:01.956Z,94668.44
2023-01-30T02:01:29.917Z,94662.28
2023-01-30T02:04:01.891Z,94664.31
2023-01-30T02:06:30.094Z,94650.78
2023-01-30T02:09:02.650Z,94663.97
2023-01-30T02:11:49.891Z,94675.56
2023-01-30T02:14:19.660Z,94652.56
2023-01-30T02:16:47.473Z,94642.66
2023-01-30T02:19:39.710Z,94631.00
2023-01-30T02:22:15.740Z,94630.63
2023-01-30T02:25:00.109Z,94633.94
2023-01-30T02:27:54.868Z,94627.16
2023-01-30T02:30:21.656Z,94628.75
2023-01-30T02:33:15.254Z,94648.13
2023-01-30T02:35:50.020Z,94676.53
2023-01-30T02:38:22.643Z,94658.97
2023-01-30T02:41:08.482Z,94645.06
2023-01-30T02:44:05.083Z,94652.78
2023-01-30T02:46:40.568Z,94644.69
2023-01-30T02:49:13.400Z,94628.63
2023-01-30T02:51:43.819Z,94642.88
2023-01-30T02:54:12.531Z,94636.59
2023-01-30T02:56:52.602Z,94630.66
2023-01-30T02:59:44.718Z,94620.25
2023-01-30T03:02:37.858Z,94621.28
2023-01-30T03:05:46.199Z,94611.25
2023-01-30T03:08:27.542Z,94610.22
2023-01-30T03:11:03.403Z,94608.38
2023-01-30T03:13:59.009Z,94615.00
2023-01-30T03:16:34.533Z,94620.69
2023-01-30T03:19:02.954Z,94623.09
2023-01-30T03:21:31.655Z,94618.31
2023-01-30T03:23:58.914Z,94611.56
2023-01-30T03:26:30.969Z,94634.94
2023-01-30T03:28:58.283Z,94624.63
2023-01-30T03:31:25.046Z,94638.88
2023-01-30T03:33:52.126Z,94631.25
2023-01-30T03:36:19.027Z,94608.00
2023-01-30T03:38:45.714Z,94608.56
2023-01-30T03:41:12.597Z,94600.69
2023-01-30T03:43:40.097Z,94591.22
2023-01-30T03:46:06.816Z,94600.75
2023-01-30T03:48:33.676Z,94584.78
2023-01-30T03:51:00.367Z,94584.78
2023-01-30T03:53:27.064Z,94578.28
2023-01-30T03:55:54.117Z,94572.88
2023-01-30T03:58:25.849Z,94556.22
2023-01-30T04:00:54.454Z,94543.91
2023-01-30T04:03:23.798Z,94537.53
2023-01-30T04:05:53.546Z,94543.56
2023-01-30T04:08:20.287Z,94531.81
2023-01-30T04:10:46.934Z,94531.72
2023-01-30T04:13:13.610Z,94542.59
2023-01-30T04:15:40.269Z,94552.72
2023-01-30T04:18:15.909Z,94549.06
2023-01-30T04:20:51.027Z,94556.69
2023-01-30T04:23:23.818Z,94546.66
2023-01-30T04:25:51.033Z,94541.41
2023-01-30T04:28:20.094Z,94541.41
2023-01-30T04:30:47.531Z,94555.09
2023-01-30T04:33:35.953Z,94562.81
2023-01-30T04:36:06.288Z,94551.69
2023-01-30T04:38:34.627Z,94558.03
2023-01-30T04:41:01.860Z,94560.75
2023-01-30T04:43:31.885Z,94553.22
2023-01-30T04:46:22.889Z,94558.94
2023-01-30T04:48:49.727Z,94560.28
2023-01-30T04:51:16.513Z,94549.56
2023-01-30T04:53:43.328Z,94566.84
2023-01-30T04:56:11.361Z,94543.50
2023-01-30T04:58:38.067Z,94543.81
2023-01-30T05:01:16.941Z,94549.38
2023-01-30T05:03:43.963Z,94533.38
2023-01-30T05:06:10.594Z,94530.53
2023-01-30T05:08:37.433Z,94526.06
2023-01-30T05:11:04.125Z,94534.81
2023-01-30T05:13:30.814Z,94525.91
2023-01-30T05:15:57.517Z,94520.19
2023-01-30T05:18:24.222Z,94525.69
2023-01-30T05:20:50.899Z,94530.50
2023-01-30T05:23:17.562Z,94537.91
2023-01-30T05:25:44.183Z,94552.13
2023-01-30T05:28:10.821Z,94554.84
2023-01-30T05:30:37.510Z,94542.50
2023-01-30T05:33:04.186Z,94545.97
2023-01-30T05:35:30.849Z,94538.09
2023-01-30T05:37:59.345Z,94536.50
2023-01-30T05:40:28.049Z,94541.28
2023-01-30T05:42:54.772Z,94535.00
2023-01-30T05:45:21.473Z,94536.66
2023-01-30T05:47:52.007Z,94525.44
2023-01-30T05:50:18.862Z,94514.13
2023-01-30T05:52:45.498Z,94515.72
2023-01-30T05:55:12.102Z,94520.97
2023-01-30T05:57:38.732Z,94520.97
2023-01-30T06:00:06.756Z,94524.63
2023-01-30T06:02:39.629Z,94516.19
2023-01-30T06:05:06.582Z,94514.63
2023-01-30T06:07:33.204Z,94508.31
2023-01-30T06:09:59.836Z,94511.03
2023-01-30T06:12:26.489Z,94512.84
2023-01-30T06:14:53.153Z,94509.50
2023-01-30T06:17:19.792Z,94506.34
2023-01-30T06:19:46.449Z,94505.63
2023-01-30T06:22:13.193Z,94500.38
2023-01-30T06:24:39.907Z,94509.84
2023-01-30T06:27:06.525Z,94512.25
2023-01-30T06:29:33.273Z,94498.84
2023-01-30T06:31:59.893Z,94501.50
2023-01-30T06:34:26.523Z,94492.25
2023-01-30T06:36:53.132Z,94495.75
2023-01-30T06:39:19.786Z,94497.34
2023-01-30T06:41:46.442Z,94508.63
2023-01-30T06:44:13.132Z,94505.22
2023-01-30T06:46:39.714Z,94510.22
2023-01-30T06:49:06.333Z,94505.78
2023-01-30T06:51:32.959Z,94512.31
2023-01-30T06:53:59.826Z,94518.03
2023-01-30T06:56:26.475Z,94513.81
2023-01-30T06:58:53.215Z,94505.16
2023-01-30T07:01:21.264Z,94514.06
2023-01-30T07:03:48.626Z,94507.47
2023-01-30T07:06:15.337Z,94513.50
2023-01-30T07:08:42.039Z,94510.09
2023-01-30T07:11:08.759Z,94512.97
2023-01-30T07:13:35.526Z,94501.09
2023-01-30T07:16:02.200Z,94494.50
2023-01-30T07:18:28.842Z,94494.50
2023-01-30T07:20:55.461Z,94483.47
2023-01-30T07:23:22.092Z,94479.53
2023-01-30T07:25:48.796Z,94480.63
2023-01-30T07:28:15.451Z,94482.84
2023-01-30T07:30:42.137Z,94478.47
2023-01-30T07:33:08.861Z,94482.16
2023-01-30T07:35:36.984Z,94483.56
2023-01-30T07:38:04.969Z,94495.66
2023-01-30T07:40:32.292Z,94508.31
2023-01-30T07:43:04.053Z,94501.03
2023-01-30T07:45:45.835Z,94496.88
2023-01-30T07:48:15.529Z,94487.13
2023-01-30T07:50:43.214Z,94481.16
2023-01-30T07:53:12.292Z,94495.69
2023-01-30T07:55:39.067Z,94479.44
2023-01-30T07:58:05.726Z,94469.53
2023-01-30T08:00:32.649Z,94473.25
2023-01-30T08:02:59.927Z,94472.22
2023-01-30T08:05:27.996Z,94477.78
2023-01-30T08:07:57.972Z,94496.19
2023-01-30T08:10:24.799Z,94491.13
2023-01-30T08:12:51.752Z,94499.81
2023-01-30T08:15:18.476Z,94480.78
2023-01-30T08:17:45.114Z,94485.88
2023-01-30T08:20:12.123Z,94489.03
2023-01-30T08:22:38.809Z,94490.13
2023-01-30T08:25:06.160Z,94498.53
2023-01-30T08:27:32.809Z,94506.22
2023-01-30T08:29:59.464Z,94488.78
2023-01-30T08:32:26.136Z,94501.84
2023-01-30T08:34:52.778Z,94521.03
2023-01-30T08:37:19.390Z,94525.00
2023-01-30T08:39:46.032Z,94517.97
2023-01-30T08:42:12.669Z,94511.97
2023-01-30T08:44:39.330Z,94503.13
2023-01-30T08:47:05.939Z,94521.09
2023-01-30T08:49:32.575Z,94509.84
2023-01-30T08:51:59.190Z,94494.66
2023-01-30T08:54:25.908Z,94498.03
2023-01-30T08:56:53.270Z,94511.13
2023-01-30T08:59:19.932Z,94520.38
2023-01-30T09:01:46.543Z,94505.13
2023-01-30T09:04:13.178Z,94514.91
2023-01-30T09:06:39.822Z,94506.56
2023-01-30T09:09:06.533Z,94490.72
2023-01-30T09:11:33.145Z,94489.81
2023-01-30T09:13:59.778Z,94483.41
2023-01-30T09:16:26.461Z,94476.16
2023-01-30T09:18:53.165Z,94454.25
2023-01-30T09:21:19.964Z,94440.28
2023-01-30T09:23:46.663Z,94440.56
2023-01-30T09:26:13.364Z,94443.22
2023-01-30T09:28:40.105Z,94441.66
2023-01-30T09:31:06.866Z,94445.44
2023-01-30T09:33:33.600Z,94450.25
2023-01-30T09:36:00.274Z,94449.16
2023-01-30T09:38:26.979Z,94441.03
2023-01-30T09:40:59.607Z,94446.00
2023-01-30T09:43:38.704Z,94454.94
2023-01-30T09:46:23.259Z,94457.31
2023-01-30T09:49:02.300Z,94466.56
2023-01-30T09:51:37.219Z,94448.09
2023-01-30T09:54:17.638Z,94447.81
2023-01-30T09:56:44.352Z,94440.69
2023-01-30T09:59:24.935Z,94422.22
2023-01-30T10:02:01.209Z,94421.38
2023-01-30T10:04:34.369Z,94416.88
2023-01-30T10:07:10.292Z,94407.88
2023-01-30T10:09:58.818Z,94412.03
2023-01-30T10:12:43.706Z,94405.72
2023-01-30T10:15:34.946Z,94399.91
2023-01-30T10:18:19.299Z,94410.19
2023-01-30T10:21:09.922Z,94406.53
2023-01-30T10:23:47.551Z,94394.97
2023-01-30T10:26:26.158Z,94386.00
2023-01-30T10:29:08.644Z,94390.50
2023-01-30T10:31:43.923Z,94391.59
2023-01-30T10:34:26.135Z,94369.97
2023-01-30T10:37:00.702Z,94381.09
2023-01-30T10:39:56.404Z,94391.66
2023-01-30T10:42:31.826Z,94386.41
2023-01-30T10:45:12.009Z,94397.72
2023-01-30T10:47:47.933Z,94387.44
2023-01-30T10:50:21.611Z,94399.56
2023-01-30T10:52:57.336Z,94400.66
2023-01-30T10:55:37.327Z,94389.56
2023-01-30T10:58:13.626Z,94383.25
2023-01-30T11:00:46.532Z,94377.72
2023-01-30T11:03:53.399Z,94371.13
2023-01-30T11:06:25.259Z,94368.25
2023-01-30T11:08:53.778Z,94356.88
2023-01-30T11:11:29.688Z,94361.63
2023-01-30T11:14:03.362Z,94362.16
2023-01-30T11:16:31.932Z,94371.13
2023-01-30T11:19:20.380Z,94364.78
2023-01-30T11:21:51.899Z,94363.72
2023-01-30T11:24:23.891Z,94353.16
2023-01-30T11:26:53.076Z,94351.53
2023-01-30T11:29:30.573Z,94353.59
2023-01-30T11:32:05.684Z,94342.47
2023-01-30T11:34:32.850Z,94340.63
2023-01-30T11:37:24.273Z,94346.63
2023-01-30T11:39:52.689Z,94328.13
2023-01-30T11:42:24.317Z,94332.59
2023-01-30T11:45:10.852Z,94333.38
2023-01-30T11:48:02.140Z,94345.75
2023-01-30T11:50:39.482Z,94351.28
2023-01-30T11:53:26.897Z,94348.09
2023-01-30T11:56:05.350Z,94346.25
2023-01-30T11:58:38.852Z,94351.03
2023-01-30T12:01:08.040Z,94348.09
2023-01-30T12:03:47.393Z,94343.63
2023-01-30T12:06:28.858Z,94333.56
2023-01-30T12:08:55.854Z,94337.00
2023-01-30T12:11:29.349Z,94339.94
2023-01-30T12:14:08.230Z,94332.78
2023-01-30T12:16:53.706Z,94315.38
2023-01-30T12:19:26.257Z,94313.53
2023-01-30T12:22:04.318Z,94300.84
2023-01-30T12:25:02.478Z,94297.19
2023-01-30T12:28:10.945Z,94293.72
2023-01-30T12:30:46.461Z,94283.97
2023-01-30T12:35:55.132Z,94282.66
2023-01-30T12:38:46.284Z,94289.22
2023-01-30T12:41:32.008Z,94285.19
2023-01-30T12:44:19.040Z,94281.25
2023-01-30T12:47:16.326Z,94280.69
2023-01-30T12:49:48.282Z,94289.41
2023-01-30T12:52:45.887Z,94283.06
2023-01-30T12:55:37.645Z,94281.22
2023-01-30T12:58:34.178Z,94289.97
2023-01-30T13:01:06.907Z,94289.19
2023-01-30T13:03:49.276Z,94295.31
2023-01-30T13:06:56.556Z,94302.19
2023-01-30T13:09:36.676Z,94311.44
2023-01-30T13:12:34.245Z,94306.97
2023-01-30T13:15:16.631Z,94293.50
2023-01-30T13:17:55.770Z,94301.16
2023-01-30T13:20:31.205Z,94306.97
2023-01-30T13:23:25.919Z,94308.03
2023-01-30T13:26:05.617Z,94306.19
2023-01-30T13:28:41.799Z,94308.81
2023-01-30T13:31:12.758Z,94325.47
2023-01-30T13:33:43.820Z,94325.72
2023-01-30T13:36:30.153Z,94330.22
2023-01-30T13:39:02.956Z,94338.41
2023-01-30T13:41:40.429Z,94334.25
2023-01-30T13:44:21.451Z,94346.16
2023-01-30T13:46:51.165Z,94341.94
2023-01-30T13:49:45.515Z,94351.19
2023-01-30T13:52:34.290Z,94354.91
2023-01-30T13:55:15.650Z,94343.81
2023-01-30T13:58:00.948Z,94347.75
2023-01-30T14:00:33.480Z,94348.81
2023-01-30T14:03:03.217Z,94357.53
2023-01-30T14:05:54.689Z,94358.59
2023-01-30T14:08:25.578Z,94352.78
2023-01-30T14:10:52.728Z,94361.28
2023-01-30T14:13:19.423Z,94361.03
2023-01-30T14:16:06.049Z,94363.13
2023-01-30T14:18:38.800Z,94370.28
2023-01-30T14:21:18.013Z,94370.28
2023-01-30T14:23:56.785Z,94370.53
2023-01-30T14:26:48.674Z,94366.84
2023-01-30T14:29:37.389Z,94366.03
2023-01-30T14:32:10.096Z,94372.13
2023-01-30T14:34:40.419Z,94370.53
2023-01-30T14:37:29.865Z,94385.59
2023-01-30T14:39:58.041Z,94394.31
2023-01-30T14:42:26.987Z,94397.50
2023-01-30T14:45:16.674Z,94406.50
2023-01-30T14:47:47.721Z,94408.88
2023-01-30T14:50:22.791Z,94406.75
2023-01-30T14:52:54.609Z,94412.56
2023-01-30T14:55:25.126Z,94430.25
2023-01-30T14:58:04.002Z,94423.91
2023-01-30T15:00:35.031Z,94443.44
2023-01-30T15:03:07.096Z,94446.09
2023-01-30T15:05:44.675Z,94453.75
2023-01-30T15:08:22.411Z,94465.88
2023-01-30T15:10:55.051Z,94477.78
2023-01-30T15:13:40.563Z,94469.88
2023-01-30T15:16:25.873Z,94459.81
2023-01-30T15:19:13.295Z,94471.44
2023-01-30T15:21:57.250Z,94474.34
2023-01-30T15:25:02.478Z,94477.25
2023-01-30T15:27:52.036Z,94480.16
2023-01-30T15:30:43.300Z,94498.88
2023-01-30T15:33:30.922Z,94498.88
2023-01-30T15:35:59.685Z,94494.66
2023-01-30T15:38:30.211Z,94507.59
2023-01-30T15:41:04.401Z,94504.94
2023-01-30T15:43:49.704Z,94505.22
2023-01-30T15:46:35.663Z,94520.78
2023-01-30T15:49:11.583Z,94522.13
2023-01-30T15:51:38.722Z,94526.88
2023-01-30T15:54:11.103Z,94528.19
2023-01-30T15:56:39.666Z,94522.13
2023-01-30T15:59:07.235Z,94522.66
2023-01-30T16:01:34.112Z,94513.13
2023-01-30T16:04:00.881Z,94523.97
2023-01-30T16:06:37.223Z,94530.03
2023-01-30T16:09:19.539Z,94540.84
2023-01-30T16:11:46.531Z,94531.09
2023-01-30T16:14:20.404Z,94536.09
2023-01-30T16:16:56.295Z,94532.41
2023-01-30T16:19:26.657Z,94522.13
2023-01-30T16:21:58.938Z,94531.34
2023-01-30T16:24:34.137Z,94530.31
2023-01-30T16:27:04.620Z,94535.84
2023-01-30T16:29:37.385Z,94552.22
2023-01-30T16:32:13.170Z,94549.84
2023-01-30T16:34:40.797Z,94562.75
2023-01-30T16:37:16.796Z,94560.13
2023-01-30T16:39:45.770Z,94568.59
2023-01-30T16:42:27.767Z,94587.59
2023-01-30T16:45:09.748Z,94589.16
2023-01-30T16:47:37.661Z,94592.88
2023-01-30T16:50:05.871Z,94585.22
2023-01-30T16:52:41.223Z,94584.97
2023-01-30T16:55:20.204Z,94595.22
2023-01-30T16:58:05.371Z,94597.63
2023-01-30T17:00:36.320Z,94606.34
2023-01-30T17:03:06.240Z,94600.78
2023-01-30T17:05:42.238Z,94603.44
2023-01-30T17:08:30.739Z,94600.00
2023-01-30T17:11:01.904Z,94601.84
2023-01-30T17:13:33.217Z,94611.34
2023-01-30T17:16:25.158Z,94620.59
2023-01-30T17:18:54.209Z,94620.88
2023-01-30T17:21:22.923Z,94624.31
2023-01-30T17:23:53.415Z,94625.63
2023-01-30T17:26:20.299Z,94612.97
2023-01-30T17:28:47.004Z,94625.88
2023-01-30T17:31:16.140Z,94633.56
2023-01-30T17:33:43.540Z,94640.41
2023-01-30T17:36:23.034Z,94630.66
2023-01-30T17:38:51.475Z,94640.41
2023-01-30T17:41:23.153Z,94638.31
2023-01-30T17:43:50.701Z,94642.00
2023-01-30T17:46:18.073Z,94649.41
2023-01-30T17:48:44.863Z,94643.34
2023-01-30T17:51:14.380Z,94641.50
2023-01-30T17:53:41.905Z,94645.47
2023-01-30T17:56:22.092Z,94652.06
2023-01-30T17:58:50.765Z,94630.41
2023-01-30T18:01:19.048Z,94627.53
2023-01-30T18:03:46.056Z,94625.66
2023-01-30T18:06:14.534Z,94633.06
2023-01-30T18:08:42.074Z,94624.63
2023-01-30T18:11:11.731Z,94623.56
2023-01-30T18:13:40.062Z,94632.78
2023-01-30T18:16:06.953Z,94634.13
2023-01-30T18:18:33.965Z,94636.75
2023-01-30T18:21:00.604Z,94634.63
2023-01-30T18:23:27.228Z,94655.50
2023-01-30T18:25:53.854Z,94668.44
2023-01-30T18:28:20.487Z,94685.88
2023-01-30T18:30:47.294Z,94693.56
2023-01-30T18:33:14.080Z,94698.59
2023-01-30T18:35:40.746Z,94710.72
2023-01-30T18:38:07.372Z,94714.41
2023-01-30T18:40:34.008Z,94718.63
2023-01-30T18:43:00.615Z,94716.25
2023-01-30T18:45:27.336Z,94721.78
2023-01-30T18:47:54.525Z,94725.22
2023-01-30T18:50:21.486Z,94730.50
2023-01-30T18:52:48.432Z,94730.00
2023-01-30T18:55:15.158Z,94731.84
2023-01-30T18:57:41.767Z,94727.34
2023-01-30T19:00:09.169Z,94726.81
2023-01-30T19:02:35.842Z,94721.28
2023-01-30T19:05:02.557Z,94731.31
2023-01-30T19:07:29.252Z,94731.31
2023-01-30T19:09:56.461Z,94726.81
2023-01-30T19:12:42.400Z,94741.34
2023-01-30T19:15:09.469Z,94752.19
2023-01-30T19:17:36.085Z,94761.94
2023-01-30T19:20:04.850Z,94767.22
2023-01-30T19:22:31.477Z,94771.97
2023-01-30T19:24:58.115Z,94787.81
2023-01-30T19:27:25.926Z,94788.34
2023-01-30T19:29:52.763Z,94806.34
2023-01-30T19:32:19.376Z,94808.47
2023-01-30T19:34:46.004Z,94812.19
2023-01-30T19:37:12.671Z,94816.97
2023-01-30T19:39:39.314Z,94815.38
2023-01-30T19:42:06.006Z,94822.25
2023-01-30T19:44:32.696Z,94826.44
2023-01-30T19:46:59.324Z,94819.56
2023-01-30T19:49:25.975Z,94832.25
2023-01-30T19:51:52.633Z,94829.59
2023-01-30T19:54:19.273Z,94822.22
2023-01-30T19:56:48.445Z,94811.38
2023-01-30T19:59:16.700Z,94810.03
2023-01-30T20:01:43.881Z,94809.22
2023-01-30T20:04:10.892Z,94813.75
2023-01-30T20:06:38.725Z,94808.19
2023-01-30T20:09:07.369Z,94810.81
2023-01-30T20:11:35.617Z,94821.38
2023-01-30T20:14:04.763Z,94822.44
2023-01-30T20:16:31.548Z,94821.38
2023-01-30T20:19:00.562Z,94822.72
2023-01-30T20:21:28.972Z,94822.22
2023-01-30T20:23:56.499Z,94825.41
2023-01-30T20:26:31.765Z,94830.13
2023-01-30T20:28:58.619Z,94824.31
2023-01-30T20:31:27.694Z,94820.09
2023-01-30T20:33:57.516Z,94821.69
2023-01-30T20:36:26.209Z,94808.22
2023-01-30T20:38:53.850Z,94821.16
2023-01-30T20:41:23.070Z,94823.25
2023-01-30T20:43:52.449Z,94824.56
2023-01-30T20:46:24.018Z,94829.31
2023-01-30T20:48:54.366Z,94833.53
2023-01-30T20:51:24.044Z,94841.22
2023-01-30T20:53:53.494Z,94829.06
2023-01-30T20:56:21.752Z,94834.34
2023-01-30T20:58:48.888Z,94831.69
2023-01-30T21:01:18.977Z,94835.38
2023-01-30T21:03:50.731Z,94833.00
2023-01-30T21:06:42.756Z,94835.94
2023-01-30T21:09:07.494Z,94840.97
2023-01-30T21:11:34.931Z,94834.34
2023-01-30T21:14:02.054Z,94820.09
2023-01-30T21:16:31.125Z,94823.25
2023-01-30T21:19:05.360Z,94822.69
2023-01-30T21:22:07.456Z,94837.22
2023-01-30T21:24:34.166Z,94838.00
2023-01-30T21:27:00.903Z,94842.78
2023-01-30T21:29:28.943Z,94847.00
2023-01-30T21:31:57.293Z,94862.06
2023-01-30T21:34:25.104Z,94861.78
2023-01-30T21:37:10.361Z,94864.94
2023-01-30T21:39:55.537Z,94862.06
2023-01-30T21:42:40.855Z,94855.72
2023-01-30T21:45:08.233Z,94860.75
2023-01-30T21:47:34.931Z,94851.78
2023-01-30T21:50:01.613Z,94839.63
2023-01-30T21:52:28.280Z,94853.63
2023-01-30T21:54:55.243Z,94852.56
2023-01-30T21:57:22.416Z,94859.16
2023-01-30T21:59:49.098Z,94855.47
2023-01-30T22:02:15.697Z,94861.56
2023-01-30T22:04:42.551Z,94859.69
2023-01-30T22:07:09.162Z,94864.44
2023-01-30T22:09:36.470Z,94868.13
2023-01-30T22:12:03.249Z,94871.56
2023-01-30T22:14:30.969Z,94877.91
2023-01-30T22:16:57.787Z,94876.31
2023-01-30T22:19:24.607Z,94880.53
2023-01-30T22:21:51.262Z,94884.50
2023-01-30T22:24:18.209Z,94881.34
2023-01-30T22:26:45.160Z,94880.25
2023-01-30T22:29:12.107Z,94881.53
2023-01-30T22:31:40.590Z,94888.91
2023-01-30T22:34:07.962Z,94887.59
2023-01-30T22:36:35.908Z,94891.28
2023-01-30T22:39:03.411Z,94886.50
2023-01-30T22:41:36.052Z,94893.63
2023-01-30T22:44:05.159Z,94887.03
2023-01-30T22:46:34.341Z,94886.25
2023-01-30T22:49:02.754Z,94877.53
2023-01-30T22:51:31.706Z,94871.44
2023-01-30T22:54:01.592Z,94882.31
2023-01-30T22:56:31.299Z,94887.59
2023-01-30T22:58:57.991Z,94892.06
2023-01-30T23:01:27.756Z,94890.22
2023-01-30T23:04:03.444Z,94891.56
2023-01-30T23:06:31.462Z,94887.09
2023-01-30T23:08:59.579Z,94896.59
2023-01-30T23:11:31.492Z,94895.25
2023-01-30T23:14:09.379Z,94881.50
2023-01-30T23:16:37.987Z,94893.91
2023-01-30T23:19:06.388Z,94900.00
2023-01-30T23:21:37.031Z,94898.66
2023-01-30T23:24:15.794Z,94913.44
2023-01-30T23:26:48.144Z,94905.22
2023-01-30T23:29:15.886Z,94917.38
2023-01-30T23:31:44.333Z,94918.44
2023-01-30T23:34:17.274Z,94919.22
2023-01-30T23:36:45.056Z,94922.41
2023-01-30T23:39:13.997Z,94907.88
2023-01-30T23:41:41.616Z,94917.63
2023-01-30T23:44:08.862Z,94908.16
2023-01-30T23:46:41.496Z,94912.91
2023-01-30T23:49:10.833Z,94911.56
2023-01-30T23:51:39.800Z,94907.06
2023-01-30T23:54:07.403Z,94913.66
2023-01-30T23:56:36.584Z,94912.34
2023-01-30T23:59:04.536Z,94905.47
